Time;durP1;ratioP1;P1;durP2;ratioP2;P2;SDS_P1;SDS_P2;PMS_P1;PMS_P2;Temp;Humidity;BMP_temperature;BMP_pressure;BME280_temperature;BME280_humidity;BME280_pressure;Samples;Min_cycle;Max_cycle;Signal;HPM_P1;HPM_P2
2023/02/17 00:02:24;;;;;;;5.83;4.43;;;;;;;10.80;45.39;96450.88;5048027;28;20206;-83
2023/02/17 00:04:52;;;;;;;5.93;4.33;;;;;;;10.82;45.55;96451.53;5041018;28;20289;-83
2023/02/17 00:07:19;;;;;;;6.27;4.80;;;;;;;10.81;45.68;96443.00;5031972;28;20201;-83
2023/02/17 00:09:50;;;;;;;6.97;5.00;;;;;;;10.85;45.71;96449.47;5048841;28;20228;-83
2023/02/17 00:12:17;;;;;;;6.67;4.93;;;;;;;10.86;45.28;96443.34;5050625;28;20300;-82
2023/02/17 00:14:43;;;;;;;8.43;5.10;;;;;;;10.85;45.36;96449.47;5033596;28;20230;-83
2023/02/17 00:17:09;;;;;;;5.13;4.37;;;;;;;10.86;45.75;96451.06;5043636;28;20200;-83
2023/02/17 00:19:37;;;;;;;4.47;3.97;;;;;;;10.89;45.79;96452.53;5043672;28;20234;-83
2023/02/17 00:22:04;;;;;;;6.27;4.20;;;;;;;10.91;45.73;96448.84;5027148;28;20245;-83
2023/02/17 00:24:32;;;;;;;6.30;4.30;;;;;;;10.94;46.06;96442.56;5047674;28;20237;-83
2023/02/17 00:26:58;;;;;;;7.03;4.27;;;;;;;10.97;45.79;96443.03;5051009;28;20232;-83
2023/02/17 00:29:30;;;;;;;7.50;5.03;;;;;;;10.99;45.92;96443.69;5034908;28;20853;-83
2023/02/17 00:31:57;;;;;;;8.27;5.80;;;;;;;11.00;45.95;96447.06;5045813;28;20706;-84
2023/02/17 00:34:24;;;;;;;7.23;4.47;;;;;;;10.93;45.44;96446.91;5050823;28;20228;-82
2023/02/17 00:36:51;;;;;;;6.20;4.00;;;;;;;10.94;45.71;96448.53;5038055;28;20201;-84
2023/02/17 00:39:18;;;;;;;7.43;4.23;;;;;;;10.89;45.39;96443.03;5043564;28;20221;-81
2023/02/17 00:41:44;;;;;;;5.87;4.40;;;;;;;10.85;45.41;96438.34;5051211;28;20197;-83
2023/02/17 00:44:16;;;;;;;5.67;4.40;;;;;;;10.87;45.67;96446.72;5051160;28;20190;-82
2023/02/17 00:46:42;;;;;;;7.50;4.53;;;;;;;10.87;45.87;96452.69;5045460;28;20214;-83
2023/02/17 00:49:13;;;;;;;6.83;4.60;;;;;;;10.84;45.87;96455.56;5034648;28;20586;-83
2023/02/17 00:51:40;;;;;;;5.50;4.20;;;;;;;10.77;45.62;96451.22;5050967;28;20239;-83
2023/02/17 00:54:08;;;;;;;6.97;3.97;;;;;;;10.80;45.78;96445.72;5048859;28;20201;-83
2023/02/17 00:56:34;;;;;;;5.33;4.07;;;;;;;10.80;45.41;96448.31;5050088;28;20229;-84
2023/02/17 00:59:00;;;;;;;6.30;4.07;;;;;;;10.81;45.79;96452.50;5039863;28;20218;-83
2023/02/17 01:01:27;;;;;;;7.03;4.47;;;;;;;10.78;45.93;96453.59;5029876;28;20633;-83
2023/02/17 01:03:53;;;;;;;5.00;4.47;;;;;;;10.76;46.17;96454.75;5041822;28;20351;-83
2023/02/17 01:06:24;;;;;;;7.13;4.20;;;;;;;10.66;45.87;96449.72;5051434;28;20229;-83
2023/02/17 01:08:51;;;;;;;6.90;4.57;;;;;;;10.64;46.07;96455.03;5040930;28;20203;-83
2023/02/17 01:11:20;;;;;;;5.37;4.30;;;;;;;10.63;46.18;96450.84;5030086;28;20299;-83
2023/02/17 01:13:46;;;;;;;6.00;4.27;;;;;;;10.58;45.93;96445.31;5039256;28;20202;-83
2023/02/17 01:16:17;;;;;;;5.73;4.53;;;;;;;10.61;46.36;96442.44;5045895;28;20308;-83
2023/02/17 01:18:44;;;;;;;4.93;4.20;;;;;;;10.66;46.21;96462.59;5030056;28;20202;-83
2023/02/17 01:21:15;;;;;;;5.80;4.50;;;;;;;10.64;45.86;96454.22;5051371;28;20229;-83
2023/02/17 01:23:42;;;;;;;5.13;4.40;;;;;;;10.65;45.97;96450.69;5045162;28;20198;-83
2023/02/17 01:26:13;;;;;;;5.00;4.10;;;;;;;10.59;45.70;96440.97;5033614;28;20234;-83
2023/02/17 01:28:41;;;;;;;4.33;3.87;;;;;;;10.53;45.69;96436.47;5040359;28;20233;-83
2023/02/17 01:31:08;;;;;;;7.17;4.30;;;;;;;10.51;45.79;96439.19;5050172;28;20218;-83
2023/02/17 01:33:35;;;;;;;7.07;4.30;;;;;;;10.52;45.91;96429.72;5037911;28;20212;-83
2023/02/17 01:36:02;;;;;;;6.87;4.53;;;;;;;10.54;46.01;96436.31;5051671;28;20225;-82
2023/02/17 01:38:28;;;;;;;5.63;4.40;;;;;;;10.53;45.54;96433.91;5052946;28;20925;-83
2023/02/17 01:40:55;;;;;;;6.87;4.60;;;;;;;10.44;45.58;96432.25;5046216;28;20225;-83
2023/02/17 01:43:21;;;;;;;5.20;4.20;;;;;;;10.44;45.24;96435.63;5052709;28;20224;-83
2023/02/17 01:45:53;;;;;;;7.07;4.10;;;;;;;10.39;45.13;96443.03;5053535;28;20233;-83
2023/02/17 01:48:22;;;;;;;5.73;4.57;;;;;;;10.45;45.56;96439.81;5034580;28;20199;-82
2023/02/17 01:50:55;;;;;;;4.80;4.17;;;;;;;10.47;45.30;96439.66;5032906;28;20238;-83
2023/02/17 01:53:25;;;;;;;4.83;4.23;;;;;;;10.49;45.02;96440.31;5042811;28;20280;-83
2023/02/17 01:55:53;;;;;;;6.50;4.67;;;;;;;10.46;45.10;96428.56;5032124;28;20265;-82
2023/02/17 01:58:22;;;;;;;6.73;4.43;;;;;;;10.50;45.00;96429.06;5040168;28;20189;-81
2023/02/17 02:00:52;;;;;;;4.73;4.03;;;;;;;10.48;45.03;96426.63;5040728;28;20234;-84
2023/02/17 02:03:19;;;;;;;6.87;4.87;;;;;;;10.50;45.05;96426.47;5040958;28;20197;-83
2023/02/17 02:05:46;;;;;;;6.70;4.47;;;;;;;10.54;44.86;96426.03;5052655;28;20756;-83
2023/02/17 02:08:15;;;;;;;6.97;4.63;;;;;;;10.56;44.67;96426.69;5046848;28;20277;-83
2023/02/17 02:10:41;;;;;;;6.33;4.57;;;;;;;10.58;44.76;96422.16;5039099;28;20226;-83
2023/02/17 02:13:08;;;;;;;4.57;4.03;;;;;;;10.60;44.53;96411.69;5052937;28;20209;-82
2023/02/17 02:15:40;;;;;;;4.70;3.97;;;;;;;10.61;44.77;96421.84;5047778;28;20233;-83
2023/02/17 02:18:22;;;;;;;4.67;4.07;;;;;;;10.59;44.78;96413.47;5037671;28;20822;-84
2023/02/17 02:21:24;;;;;;;5.70;4.03;;;;;;;10.60;44.77;96412.50;5034004;28;20245;-83
2023/02/17 02:24:03;;;;;;;5.13;4.27;;;;;;;10.64;45.07;96413.81;5032714;28;20206;-83
2023/02/17 02:26:57;;;;;;;5.60;4.30;;;;;;;10.63;44.64;96421.69;5051244;28;20229;-81
2023/02/17 02:29:53;;;;;;;8.03;4.63;;;;;;;10.61;45.13;96419.28;5050304;28;20221;-83
2023/02/17 02:32:45;;;;;;;6.70;4.17;;;;;;;10.65;45.29;96420.56;5051581;28;20573;-84
2023/02/17 02:35:16;;;;;;;4.90;4.40;;;;;;;10.74;45.06;96424.00;5053012;28;20240;-83
2023/02/17 02:37:48;;;;;;;6.10;4.33;;;;;;;10.74;45.37;96418.84;5051517;28;20198;-83
2023/02/17 02:40:19;;;;;;;4.70;4.20;;;;;;;10.76;45.13;96427.22;5050995;28;20236;-83
2023/02/17 02:42:47;;;;;;;4.77;4.10;;;;;;;10.75;45.25;96427.38;5038831;28;20205;-83
2023/02/17 02:45:13;;;;;;;5.53;4.37;;;;;;;10.73;45.39;96427.53;5031694;28;20621;-83
2023/02/17 02:47:47;;;;;;;6.47;4.10;;;;;;;10.73;45.48;96430.91;5031804;28;20210;-83
2023/02/17 02:50:17;;;;;;;5.03;4.13;;;;;;;10.73;45.52;96422.38;5033383;28;20230;-83
2023/02/17 02:52:52;;;;;;;3.93;3.50;;;;;;;10.72;45.75;96421.56;5039054;28;20633;-83
2023/02/17 02:55:29;;;;;;;6.23;4.00;;;;;;;10.73;45.60;96419.81;5040006;28;20232;-82
2023/02/17 02:58:04;;;;;;;7.73;4.80;;;;;;;10.73;45.62;96407.75;5031590;28;20205;-82
2023/02/17 03:00:35;;;;;;;7.27;4.23;;;;;;;10.67;45.56;96410.94;5035204;28;20226;-83
2023/02/17 03:03:10;;;;;;;4.97;3.97;;;;;;;10.69;45.45;96403.84;5030958;28;20205;-83
2023/02/17 03:05:45;;;;;;;4.83;4.10;;;;;;;10.69;45.58;96405.63;5030382;28;20222;-83
2023/02/17 03:08:16;;;;;;;7.23;4.60;;;;;;;10.72;45.88;96400.97;5030984;28;20204;-83
2023/02/17 03:10:48;;;;;;;4.17;3.73;;;;;;;10.76;46.12;96400.66;5049781;28;20229;-83
2023/02/17 03:13:14;;;;;;;5.97;4.03;;;;;;;10.72;46.19;96395.81;5051822;28;20209;-83
2023/02/17 03:15:41;;;;;;;4.67;4.10;;;;;;;10.77;46.22;96397.94;5032794;28;20237;-83
2023/02/17 03:18:09;;;;;;;4.80;3.77;;;;;;;10.74;45.96;96398.25;5038443;28;20632;-84
2023/02/17 03:20:39;;;;;;;5.57;4.10;;;;;;;10.72;45.98;96393.25;5049719;28;20229;-83
2023/02/17 03:23:06;;;;;;;5.97;4.23;;;;;;;10.65;45.96;96404.31;5056064;28;20243;-83
2023/02/17 03:25:33;;;;;;;4.70;3.97;;;;;;;10.71;46.26;96395.97;5033677;28;20683;-83
2023/02/17 03:27:59;;;;;;;5.10;4.00;;;;;;;10.70;46.37;96387.44;5051610;28;20209;-83
2023/02/17 03:30:26;;;;;;;5.63;4.00;;;;;;;10.69;45.86;96388.41;5051297;28;20259;-84
2023/02/17 03:32:52;;;;;;;5.03;3.47;;;;;;;10.70;45.91;96384.88;5042924;28;20209;-83
2023/02/17 03:35:20;;;;;;;3.97;3.50;;;;;;;10.75;46.29;96389.56;5049563;28;20232;-83
2023/02/17 03:37:47;;;;;;;4.93;3.77;;;;;;;10.73;46.01;96386.31;5043590;28;20280;-83
2023/02/17 03:40:13;;;;;;;4.33;3.80;;;;;;;10.74;45.84;96387.94;5036111;28;20236;-83
2023/02/17 03:42:39;;;;;;;5.80;3.87;;;;;;;10.75;45.80;96381.81;5045787;28;20201;-83
2023/02/17 03:45:06;;;;;;;5.50;3.90;;;;;;;10.68;46.21;96380.81;5030998;28;20635;-83
2023/02/17 03:47:33;;;;;;;6.73;3.80;;;;;;;10.65;45.71;96374.22;5036136;28;20197;-82
2023/02/17 03:49:59;;;;;;;4.73;3.37;;;;;;;10.65;45.67;96376.78;5050611;28;20237;-83
2023/02/17 03:52:27;;;;;;;4.87;3.60;;;;;;;10.70;45.88;96374.56;5043473;28;20287;-83
2023/02/17 03:54:53;;;;;;;4.80;3.50;;;;;;;10.69;45.49;96378.09;5036546;28;20233;-83
2023/02/17 03:57:20;;;;;;;3.57;3.20;;;;;;;10.68;45.69;96376.50;5052312;28;20670;-83
2023/02/17 03:59:46;;;;;;;4.87;3.27;;;;;;;10.68;45.32;96381.63;5039878;28;20240;-83
2023/02/17 04:02:12;;;;;;;5.07;3.23;;;;;;;10.69;45.28;96377.28;5030596;28;20198;-83
2023/02/17 04:04:39;;;;;;;3.77;3.07;;;;;;;10.68;44.90;96373.91;5039071;28;20241;-84
2023/02/17 04:07:05;;;;;;;6.03;3.33;;;;;;;10.71;45.10;96371.03;5050752;28;20220;-83
2023/02/17 04:09:33;;;;;;;5.27;3.70;;;;;;;10.68;45.38;96367.94;5041862;28;20246;-83
2023/02/17 04:12:00;;;;;;;4.47;2.80;;;;;;;10.73;44.97;96365.72;5029776;28;20253;-83
2023/02/17 04:14:26;;;;;;;4.90;3.00;;;;;;;10.75;45.35;96368.13;5040187;28;20194;-83
2023/02/17 04:16:53;;;;;;;4.47;3.30;;;;;;;10.81;45.07;96370.06;5051791;28;20641;-83
2023/02/17 04:19:19;;;;;;;3.07;2.70;;;;;;;10.79;45.07;96374.56;5044201;28;20410;-83
2023/02/17 04:21:45;;;;;;;5.20;3.10;;;;;;;10.81;45.20;96370.06;5038150;28;20295;-83
2023/02/17 04:24:12;;;;;;;4.43;2.80;;;;;;;10.80;44.76;96361.53;5043059;28;20208;-83
2023/02/17 04:26:40;;;;;;;4.40;2.90;;;;;;;10.77;45.26;96368.78;5051246;28;20197;-83
2023/02/17 04:29:06;;;;;;;3.23;2.87;;;;;;;10.79;45.37;96374.56;5050238;28;20217;-83
2023/02/17 04:31:33;;;;;;;3.33;2.77;;;;;;;10.75;45.23;96366.38;5049471;28;20232;-83
2023/02/17 04:33:59;;;;;;;3.97;3.10;;;;;;;10.83;44.87;96366.38;5047100;28;20957;-83
2023/02/17 04:36:26;;;;;;;3.20;2.70;;;;;;;10.77;44.88;96373.94;5030658;28;20283;-83
2023/02/17 04:38:52;;;;;;;4.30;2.90;;;;;;;10.77;45.11;96361.88;5033420;28;20618;-83
2023/02/17 04:41:18;;;;;;;6.23;3.10;;;;;;;10.74;44.84;96364.75;5049889;28;20654;-83
2023/02/17 04:43:46;;;;;;;3.63;2.67;;;;;;;10.73;45.28;96369.09;5056195;28;20247;-83
2023/02/17 04:46:13;;;;;;;3.53;2.70;;;;;;;10.73;45.26;96366.53;5031095;28;20745;-83
2023/02/17 04:48:39;;;;;;;3.40;2.80;;;;;;;10.72;45.19;96358.94;5043631;28;20197;-83
2023/02/17 04:51:06;;;;;;;4.20;3.00;;;;;;;10.69;45.18;96354.91;5049522;28;20236;-83
2023/02/17 04:53:32;;;;;;;5.17;3.10;;;;;;;10.76;44.99;96355.09;5040110;28;20232;-83
2023/02/17 04:55:59;;;;;;;3.20;2.90;;;;;;;10.81;44.92;96357.19;5034192;28;20230;-84
2023/02/17 04:58:25;;;;;;;3.33;2.90;;;;;;;10.86;44.78;96354.94;5054754;28;20820;-83
2023/02/17 05:00:53;;;;;;;3.40;2.87;;;;;;;10.83;44.88;96352.69;5041764;28;20230;-84
2023/02/17 05:03:19;;;;;;;4.90;3.13;;;;;;;10.78;44.44;96352.34;5052547;28;20197;-83
2023/02/17 05:05:46;;;;;;;2.90;2.70;;;;;;;10.75;44.89;96350.91;5042791;28;20259;-84
2023/02/17 05:08:12;;;;;;;5.63;3.00;;;;;;;10.81;44.75;96349.44;5054222;28;20209;-83
2023/02/17 05:10:39;;;;;;;6.10;3.13;;;;;;;10.79;44.77;96347.03;5043242;28;20221;-83
2023/02/17 05:13:05;;;;;;;4.43;3.30;;;;;;;10.78;44.47;96353.16;5034379;28;20202;-84
2023/02/17 05:15:32;;;;;;;3.00;2.70;;;;;;;10.82;44.74;96339.00;5053057;28;20259;-84
2023/02/17 05:17:59;;;;;;;3.60;3.00;;;;;;;10.78;44.75;96336.88;5053839;28;20206;-83
2023/02/17 05:20:26;;;;;;;2.90;2.67;;;;;;;10.82;44.95;96340.75;5051804;28;20221;-83
2023/02/17 05:22:53;;;;;;;4.47;3.17;;;;;;;10.82;45.16;96338.19;5054796;28;20574;-84
2023/02/17 05:25:19;;;;;;;4.37;3.40;;;;;;;10.87;45.23;96344.47;5054092;28;20236;-83
2023/02/17 05:27:47;;;;;;;3.57;3.07;;;;;;;10.90;44.94;96336.44;5042029;28;20209;-84
2023/02/17 05:30:13;;;;;;;4.53;2.87;;;;;;;10.94;44.92;96336.94;5057884;28;20224;-84
2023/02/17 05:32:40;;;;;;;4.03;3.17;;;;;;;10.95;44.98;96333.38;5069191;28;20255;-84
2023/02/17 05:35:08;;;;;;;4.20;3.00;;;;;;;10.89;44.96;96344.31;5045380;28;20241;-83
2023/02/17 05:37:34;;;;;;;3.57;3.07;;;;;;;10.90;44.75;96339.00;5030135;28;20248;-83
2023/02/17 05:40:01;;;;;;;5.67;3.10;;;;;;;10.92;45.01;96344.00;5044936;28;20607;-83
2023/02/17 05:42:27;;;;;;;3.47;2.83;;;;;;;10.88;44.89;96343.53;5042906;28;20710;-84
2023/02/17 05:44:54;;;;;;;4.20;2.93;;;;;;;10.90;45.10;96338.22;5039019;28;20257;-83
2023/02/17 05:47:20;;;;;;;3.47;2.80;;;;;;;10.84;44.72;96339.66;5033908;28;20193;-84
2023/02/17 05:49:47;;;;;;;5.00;3.03;;;;;;;10.90;45.00;96340.78;5047083;28;20230;-83
2023/02/17 05:52:15;;;;;;;4.23;2.90;;;;;;;10.90;44.63;96338.22;5053399;28;20212;-84
2023/02/17 05:54:42;;;;;;;3.67;2.83;;;;;;;10.89;44.88;96339.97;5044615;28;20228;-84
2023/02/17 05:57:08;;;;;;;4.27;2.93;;;;;;;10.86;44.88;96345.44;5051685;28;20252;-84
2023/02/17 05:59:34;;;;;;;4.50;3.10;;;;;;;10.87;45.21;96343.69;5051465;28;20233;-84
2023/02/17 06:02:01;;;;;;;4.30;3.10;;;;;;;10.85;45.43;96346.41;5053680;28;20205;-84
2023/02/17 06:04:27;;;;;;;5.13;3.00;;;;;;;10.89;45.28;96350.28;5038279;28;20198;-84
2023/02/17 06:06:56;;;;;;;3.00;2.53;;;;;;;10.93;45.56;96353.34;5033546;28;20613;-84
2023/02/17 06:09:23;;;;;;;4.57;3.00;;;;;;;10.93;45.51;96355.94;5034790;28;20210;-84
2023/02/17 06:11:50;;;;;;;5.20;2.80;;;;;;;10.89;46.07;96355.44;5034700;28;20205;-84
2023/02/17 06:14:17;;;;;;;3.83;2.63;;;;;;;10.90;46.13;96356.25;5045411;28;20200;-83
2023/02/17 06:16:43;;;;;;;4.30;2.87;;;;;;;10.96;46.42;96365.91;5045686;28;20225;-84
2023/02/17 06:19:10;;;;;;;7.37;2.93;;;;;;;10.98;45.97;96367.34;5069279;28;20258;-84
2023/02/17 06:21:36;;;;;;;3.80;2.87;;;;;;;10.97;46.72;96370.09;5070617;28;20220;-83
2023/02/17 06:24:03;;;;;;;6.63;2.70;;;;;;;10.93;46.68;96371.38;5062526;28;20209;-84
2023/02/17 06:26:31;;;;;;;5.77;3.10;;;;;;;10.97;48.86;96375.22;5059650;28;20224;-83
2023/02/17 06:28:57;;;;;;;4.37;2.77;;;;;;;10.96;49.32;96373.66;5067827;28;20634;-84
2023/02/17 06:31:24;;;;;;;4.30;3.03;;;;;;;10.91;49.51;96374.13;5069553;28;20253;-84
2023/02/17 06:33:50;;;;;;;4.03;2.60;;;;;;;10.93;50.23;96377.34;5078165;28;20232;-84
2023/02/17 06:36:17;;;;;;;5.10;2.83;;;;;;;10.96;49.78;96373.66;5066170;28;20216;-84
2023/02/17 06:38:43;;;;;;;5.20;2.97;;;;;;;10.96;51.89;96371.88;5076394;28;20608;-84
2023/02/17 06:41:10;;;;;;;3.33;2.93;;;;;;;10.88;51.87;96371.84;5065208;28;20278;-83
2023/02/17 06:43:37;;;;;;;4.40;3.70;;;;;;;10.86;51.65;96373.78;5071661;28;20226;-84
2023/02/17 06:46:04;;;;;;;4.40;3.20;;;;;;;10.88;51.51;96376.19;5068607;28;20745;-84
2023/02/17 06:48:31;;;;;;;3.13;2.67;;;;;;;10.92;51.16;96374.94;5066492;28;20200;-84
2023/02/17 06:50:58;;;;;;;6.53;2.60;;;;;;;10.90;51.65;96369.13;5071746;28;20830;-83
2023/02/17 06:53:24;;;;;;;5.30;2.67;;;;;;;10.94;51.10;96373.81;5052198;28;20209;-83
2023/02/17 06:55:53;;;;;;;5.60;2.63;;;;;;;10.95;50.76;96377.19;5042236;28;20225;-83
2023/02/17 06:58:19;;;;;;;4.50;2.60;;;;;;;10.98;50.77;96372.50;5042601;28;20194;-83
2023/02/17 07:00:47;;;;;;;4.53;2.93;;;;;;;10.99;51.10;96366.38;5035568;28;20230;-84
2023/02/17 07:03:14;;;;;;;3.67;2.57;;;;;;;10.98;50.45;96372.50;5043384;28;20197;-84
2023/02/17 07:05:40;;;;;;;4.33;2.60;;;;;;;11.03;50.69;96372.84;5051959;28;20466;-83
2023/02/17 07:08:06;;;;;;;4.77;2.50;;;;;;;10.97;50.95;96360.56;5044681;28;20248;-84
2023/02/17 07:10:33;;;;;;;6.00;2.87;;;;;;;10.99;50.93;96357.84;5036058;28;20222;-84
2023/02/17 07:12:59;;;;;;;4.63;2.37;;;;;;;11.07;51.09;96357.88;5041480;28;20213;-84
2023/02/17 07:15:26;;;;;;;4.40;2.63;;;;;;;11.11;51.13;96361.75;5052149;28;20730;-84
2023/02/17 07:17:54;;;;;;;4.77;2.57;;;;;;;11.16;51.39;96363.84;5039584;28;20769;-84
2023/02/17 07:20:20;;;;;;;4.80;3.27;;;;;;;11.23;51.52;96357.06;5051193;28;20895;-84
2023/02/17 07:22:46;;;;;;;6.33;2.73;;;;;;;11.33;52.10;96379.16;5049492;28;20198;-83
2023/02/17 07:25:14;;;;;;;6.13;2.73;;;;;;;11.42;51.95;96388.47;5050782;28;20256;-84
2023/02/17 07:27:41;;;;;;;7.57;2.90;;;;;;;11.49;52.07;96377.53;5038904;28;20645;-84
2023/02/17 07:30:08;;;;;;;6.73;3.20;;;;;;;11.52;52.09;96374.63;5059215;28;20228;-83
2023/02/17 07:32:35;;;;;;;5.90;3.20;;;;;;;11.61;52.47;96373.63;5059998;28;20198;-83
2023/02/17 07:35:03;;;;;;;11.87;3.23;;;;;;;11.75;52.46;96373.75;5037733;28;20230;-84
2023/02/17 07:37:29;;;;;;;4.53;2.37;;;;;;;11.74;52.75;96379.09;5038269;28;20909;-83
2023/02/17 07:39:56;;;;;;;5.60;2.73;;;;;;;11.76;52.79;96382.34;5052144;28;20320;-82
2023/02/17 07:42:23;;;;;;;4.50;2.83;;;;;;;11.82;52.77;96375.72;5052275;28;20248;-83
2023/02/17 07:44:49;;;;;;;5.33;2.60;;;;;;;11.84;52.80;96378.97;5041598;28;20226;-84
2023/02/17 07:47:16;;;;;;;8.40;2.87;;;;;;;11.85;53.02;96378.78;5038373;28;20201;-83
2023/02/17 07:49:42;;;;;;;5.20;2.47;;;;;;;11.81;52.70;96376.69;5051374;28;20233;-84
2023/02/17 07:52:10;;;;;;;5.47;3.23;;;;;;;11.78;52.87;96385.56;5051051;28;20252;-84
2023/02/17 07:54:36;;;;;;;5.83;2.77;;;;;;;11.81;53.00;96380.09;5050921;28;20274;-84
2023/02/17 07:57:03;;;;;;;6.57;2.60;;;;;;;11.82;53.06;96381.69;5032966;28;20225;-84
2023/02/17 07:59:30;;;;;;;16.20;7.23;;;;;;;11.83;53.92;96383.31;5044946;28;20217;-84
2023/02/17 08:01:58;;;;;;;6.67;3.57;;;;;;;11.84;53.89;96392.66;5055923;28;20813;-84
2023/02/17 08:04:25;;;;;;;6.23;3.37;;;;;;;11.85;53.55;96393.47;5030505;28;20210;-84
2023/02/17 08:06:51;;;;;;;6.03;3.23;;;;;;;11.80;53.88;96388.78;5047364;28;20826;-83
2023/02/17 08:14:47;;;;;;;5.03;2.73;;;;;;;11.85;54.38;96386.53;5052193;28;20228;-84
2023/02/17 08:17:14;;;;;;;7.03;3.13;;;;;;;11.87;54.09;96388.94;5034983;28;20218;-84
2023/02/17 08:19:40;;;;;;;10.10;2.90;;;;;;;11.85;54.45;96385.72;5050403;28;20235;-84
2023/02/17 08:22:07;;;;;;;7.17;2.67;;;;;;;11.85;54.43;96389.13;5055224;28;20204;-84
2023/02/17 08:24:35;;;;;;;6.37;3.03;;;;;;;11.86;54.98;96387.34;5030878;28;20253;-84
2023/02/17 08:27:01;;;;;;;12.40;2.93;;;;;;;11.88;54.83;96390.56;5045997;28;20185;-84
2023/02/17 08:29:28;;;;;;;7.93;2.67;;;;;;;11.91;54.80;96395.41;5048886;28;20220;-84
2023/02/17 08:31:54;;;;;;;6.83;2.90;;;;;;;12.01;54.42;96393.44;5042356;28;20453;-84
2023/02/17 08:34:20;;;;;;;7.13;2.53;;;;;;;11.99;55.00;96392.78;5038108;28;20208;-84
2023/02/17 08:36:47;;;;;;;8.77;3.40;;;;;;;12.03;54.58;96389.72;5062893;28;20292;-84
2023/02/17 08:39:17;;;;;;;10.20;2.83;;;;;;;12.01;54.66;96381.31;5050484;28;20734;-83
2023/02/17 08:41:45;;;;;;;8.00;3.80;;;;;;;12.02;54.88;96392.47;5046918;28;20213;-84
2023/02/17 08:44:14;;;;;;;7.87;3.10;;;;;;;11.98;54.64;96401.50;5046979;28;20198;-82
2023/02/17 08:46:42;;;;;;;7.40;3.00;;;;;;;11.98;55.02;96397.13;5033540;28;20217;-83
2023/02/17 08:49:09;;;;;;;5.27;2.60;;;;;;;12.05;55.44;96398.09;5033401;28;20429;-83
2023/02/17 08:51:36;;;;;;;7.10;3.10;;;;;;;12.09;55.50;96399.38;5048352;28;20454;-82
2023/02/17 08:54:05;;;;;;;5.80;2.90;;;;;;;12.13;55.31;96399.84;5052621;28;20204;-82
2023/02/17 08:56:32;;;;;;;8.83;2.37;;;;;;;12.16;55.71;96411.63;5045073;28;20221;-81
2023/02/17 08:59:02;;;;;;;6.97;2.73;;;;;;;12.15;55.42;96408.22;5060610;28;20662;-82
2023/02/17 09:01:29;;;;;;;4.47;2.30;;;;;;;12.14;55.32;96401.44;5049922;28;20299;-84
2023/02/17 09:03:57;;;;;;;5.13;2.80;;;;;;;12.16;55.23;96409.03;5051379;28;20272;-83
2023/02/17 09:06:24;;;;;;;7.27;3.13;;;;;;;12.16;57.76;96424.53;5048278;28;20594;-84
2023/02/17 09:08:51;;;;;;;6.63;2.77;;;;;;;12.10;58.71;96426.81;5050953;28;20200;-83
2023/02/17 09:11:19;;;;;;;5.73;2.63;;;;;;;12.05;58.98;96436.00;5050121;28;20427;-83
2023/02/17 09:13:46;;;;;;;9.03;3.20;;;;;;;12.01;58.75;96422.63;5050177;28;20285;-83
2023/02/17 09:16:13;;;;;;;6.20;3.00;;;;;;;11.97;59.54;96433.44;5043775;28;20620;-83
2023/02/17 09:18:40;;;;;;;6.40;3.57;;;;;;;11.93;59.95;96422.63;5056991;28;20243;-83
2023/02/17 09:21:08;;;;;;;6.50;3.20;;;;;;;11.90;60.21;96429.91;5050702;28;20225;-83
2023/02/17 09:23:35;;;;;;;7.43;2.77;;;;;;;11.87;60.26;96428.47;5004693;28;20229;-84
2023/02/17 09:26:04;;;;;;;4.40;2.70;;;;;;;11.88;59.86;96412.00;5029034;28;20260;-84
2023/02/17 09:28:31;;;;;;;6.90;2.57;;;;;;;11.87;59.75;96430.25;5031981;28;20252;-84
2023/02/17 09:30:58;;;;;;;5.23;2.67;;;;;;;11.97;60.08;96426.50;5065149;28;20286;-84
2023/02/17 09:33:25;;;;;;;7.27;2.83;;;;;;;12.06;59.71;96414.41;5058601;28;20241;-83
2023/02/17 09:35:52;;;;;;;5.77;3.07;;;;;;;12.07;59.22;96406.50;5053685;28;20217;-84
2023/02/17 09:38:19;;;;;;;8.50;4.03;;;;;;;12.12;59.27;96408.59;5050994;28;20625;-83
2023/02/17 09:40:47;;;;;;;4.53;2.87;;;;;;;12.14;58.92;96413.56;5055834;28;20256;-84
2023/02/17 09:43:16;;;;;;;6.37;2.87;;;;;;;12.17;58.94;96410.66;5041840;28;20208;-84
2023/02/17 09:45:49;;;;;;;5.87;3.17;;;;;;;12.20;59.06;96418.88;5049605;28;20660;-84
2023/02/17 09:48:19;;;;;;;6.73;2.70;;;;;;;12.26;58.61;96420.00;5064161;28;20231;-83
2023/02/17 09:50:54;;;;;;;6.13;3.30;;;;;;;12.39;57.74;96415.91;5063571;28;20245;-84
2023/02/17 09:53:30;;;;;;;7.07;2.87;;;;;;;12.49;57.88;96418.31;5058371;28;20581;-84
2023/02/17 09:55:58;;;;;;;8.17;2.70;;;;;;;12.69;56.84;96427.25;5047402;28;20221;-84
2023/02/17 09:58:32;;;;;;;7.13;2.93;;;;;;;12.86;56.79;96422.00;5056245;28;20221;-84
2023/02/17 10:01:03;;;;;;;7.60;2.87;;;;;;;12.83;56.48;96427.50;5054312;28;20430;-84
2023/02/17 10:03:36;;;;;;;7.87;3.00;;;;;;;12.85;55.99;96426.38;5044096;28;20236;-84
2023/02/17 10:06:13;;;;;;;4.83;2.93;;;;;;;12.87;56.61;96426.19;5065116;28;20228;-84
2023/02/17 10:08:47;;;;;;;11.43;3.10;;;;;;;12.92;56.45;96440.19;5065668;28;20198;-83
2023/02/17 10:11:26;;;;;;;5.30;2.70;;;;;;;13.01;55.80;96417.72;5047928;28;20229;-84
2023/02/17 10:13:54;;;;;;;6.40;3.13;;;;;;;13.42;55.21;96415.69;5044271;28;20225;-84
2023/02/17 10:16:25;;;;;;;4.97;2.77;;;;;;;13.42;54.47;96416.50;5048194;28;20282;-83
2023/02/17 10:18:58;;;;;;;4.47;2.23;;;;;;;13.40;54.39;96425.41;5062435;28;20228;-83
2023/02/17 10:21:30;;;;;;;9.27;3.40;;;;;;;13.49;54.30;96416.59;5052088;28;20225;-84
2023/02/17 10:23:57;;;;;;;7.00;2.95;;;;;;;13.43;55.04;96418.09;5052295;28;20205;-84
2023/02/17 10:26:34;;;;;;;7.63;3.30;;;;;;;13.64;54.45;96425.22;5056806;28;20229;-83
2023/02/17 10:29:05;;;;;;;7.47;3.03;;;;;;;13.79;53.50;96412.31;5056959;28;20185;-83
2023/02/17 10:31:43;;;;;;;5.20;2.80;;;;;;;13.77;53.60;96422.81;5066059;28;20307;-84
2023/02/17 10:34:16;;;;;;;5.63;3.80;;;;;;;13.70;53.41;96427.09;5075497;28;20205;-84
2023/02/17 10:36:53;;;;;;;5.30;2.88;;;;;;;13.70;53.31;96403.78;5072236;28;20232;-84
2023/02/17 10:39:34;;;;;;;6.80;2.67;;;;;;;13.91;52.91;96402.31;5044230;28;20218;-84
2023/02/17 10:42:03;;;;;;;7.15;2.75;;;;;;;14.12;51.99;96405.00;5040000;28;20216;-83
2023/02/17 10:44:33;;;;;;;5.00;2.50;;;;;;;14.45;51.31;96408.06;5042131;28;20195;-83
2023/02/17 10:47:00;;;;;;;5.28;2.67;;;;;;;14.50;51.02;96400.56;5049397;28;20208;-83
2023/02/17 10:49:29;;;;;;;4.97;2.30;;;;;;;14.47;50.88;96404.31;5044782;28;20498;-83
2023/02/17 10:52:01;;;;;;;5.47;2.55;;;;;;;14.73;50.50;96411.59;5054275;28;20244;-84
2023/02/17 10:54:32;;;;;;;4.82;2.50;;;;;;;15.02;50.02;96402.13;5050161;28;20200;-83
2023/02/17 10:57:03;;;;;;;4.63;2.75;;;;;;;15.30;48.82;96397.03;5053343;28;20607;-84
2023/02/17 10:59:33;;;;;;;8.05;2.40;;;;;;;15.37;48.64;96387.53;5057098;28;20213;-83
2023/02/17 11:02:15;;;;;;;9.43;3.20;;;;;;;15.25;48.30;96413.16;5054679;28;20202;-83
2023/02/17 11:04:42;;;;;;;5.72;3.70;;;;;;;15.19;48.62;96403.53;5054484;28;20283;-84
2023/02/17 11:07:13;;;;;;;8.40;2.45;;;;;;;15.26;48.97;96390.59;5035199;28;20891;-84
2023/02/17 11:09:46;;;;;;;4.82;2.30;;;;;;;15.08;48.63;96391.03;5040091;28;20239;-83
2023/02/17 11:12:16;;;;;;;7.25;2.63;;;;;;;15.12;48.91;96389.69;5054277;28;20197;-83
2023/02/17 11:14:46;;;;;;;7.35;2.58;;;;;;;14.98;49.02;96388.75;5052119;28;20771;-83
2023/02/17 11:17:16;;;;;;;7.15;2.42;;;;;;;14.93;49.00;96385.09;5057288;28;20209;-84
2023/02/17 11:19:53;;;;;;;5.40;2.35;;;;;;;14.99;49.01;96379.19;5043449;28;20679;-83
2023/02/17 11:22:32;;;;;;;5.60;2.55;;;;;;;14.89;48.75;96384.66;5044001;28;20650;-83
2023/02/17 11:25:00;;;;;;;4.40;2.80;;;;;;;14.64;49.70;96378.19;5035795;28;20226;-83
2023/02/17 11:27:27;;;;;;;7.55;3.88;;;;;;;14.77;49.79;96379.16;5036536;28;20847;-83
2023/02/17 11:29:54;;;;;;;4.07;2.13;;;;;;;14.59;49.60;96385.72;5038545;28;20233;-83
2023/02/17 11:32:31;;;;;;;5.75;2.35;;;;;;;14.71;49.68;96377.28;5053432;28;20197;-82
2023/02/17 11:35:02;;;;;;;4.60;2.35;;;;;;;14.76;49.40;96379.34;5055362;28;20593;-83
2023/02/17 11:37:48;;;;;;;6.50;2.70;;;;;;;14.99;49.23;96366.22;5053318;28;20221;-83
2023/02/17 11:40:25;;;;;;;4.47;1.90;;;;;;;14.99;49.06;96372.22;5056392;28;20233;-83
2023/02/17 11:42:59;;;;;;;3.90;2.15;;;;;;;14.95;49.19;96357.19;5044483;28;20193;-83
2023/02/17 11:45:28;;;;;;;3.70;2.08;;;;;;;14.68;49.55;96359.50;5051829;28;20231;-83
2023/02/17 11:48:11;;;;;;;4.53;2.20;;;;;;;14.66;50.45;96347.72;5043881;28;20194;-82